Time;durP1;ratioP1;P1;durP2;ratioP2;P2;SDS_P1;SDS_P2;PMS_P1;PMS_P2;Temp;Humidity;BMP_temperature;BMP_pressure;BME280_temperature;BME280_humidity;BME280_pressure;Samples;Min_cycle;Max_cycle;Signal;HPM_P1;HPM_P2
2023/05/09 00:00:43;;;;;;;55.45;38.38;;;;;;;14.87;100.00;101663.44;5032267;28;20045;-48
2023/05/09 00:03:08;;;;;;;55.35;37.45;;;;;;;14.89;100.00;101660.31;5047160;28;20056;-45
2023/05/09 00:05:33;;;;;;;56.97;37.97;;;;;;;14.87;100.00;101651.44;5053024;28;20058;-48
2023/05/09 00:07:58;;;;;;;52.92;36.83;;;;;;;14.85;100.00;101653.72;5053082;28;20048;-45
2023/05/09 00:10:26;;;;;;;54.03;35.78;;;;;;;14.82;100.00;101657.97;5052816;28;20087;-46
2023/05/09 00:12:51;;;;;;;52.10;36.92;;;;;;;14.82;100.00;101653.25;5052969;28;20025;-48
2023/05/09 00:15:17;;;;;;;52.00;36.45;;;;;;;14.83;100.00;101656.84;5052799;28;20029;-50
2023/05/09 00:17:43;;;;;;;51.63;35.45;;;;;;;14.83;100.00;101648.47;5052797;28;20029;-45
2023/05/09 00:20:11;;;;;;;50.42;35.22;;;;;;;14.82;100.00;101644.03;5052799;28;20094;-46
2023/05/09 00:22:38;;;;;;;46.25;33.63;;;;;;;14.82;100.00;101638.47;5053156;28;20441;-48
2023/05/09 00:25:04;;;;;;;49.05;34.50;;;;;;;14.86;100.00;101635.88;5052739;28;20063;-46
2023/05/09 00:27:29;;;;;;;45.10;31.73;;;;;;;14.80;100.00;101637.97;5052638;28;20036;-46
2023/05/09 00:29:55;;;;;;;43.67;31.10;;;;;;;14.74;100.00;101642.03;5052622;28;20024;-46
2023/05/09 00:32:21;;;;;;;44.78;31.38;;;;;;;14.77;100.00;101645.00;5052344;28;20456;-49
2023/05/09 00:34:46;;;;;;;43.47;29.85;;;;;;;14.73;100.00;101635.63;5052591;28;20024;-45
2023/05/09 00:37:11;;;;;;;42.03;29.88;;;;;;;14.71;100.00;101629.56;5051408;28;20136;-48
2023/05/09 00:39:36;;;;;;;41.80;30.55;;;;;;;14.72;100.00;101628.41;5052164;28;20145;-51
2023/05/09 00:42:02;;;;;;;39.97;29.10;;;;;;;14.75;100.00;101621.38;5052258;28;20025;-49
2023/05/09 00:44:27;;;;;;;42.35;30.27;;;;;;;14.76;100.00;101620.25;5052230;28;20159;-51
2023/05/09 00:46:53;;;;;;;41.40;30.15;;;;;;;14.74;100.00;101614.16;5052104;28;20021;-50
2023/05/09 00:49:18;;;;;;;44.15;32.13;;;;;;;14.73;100.00;101618.09;5052078;28;20032;-50
2023/05/09 00:51:44;;;;;;;41.38;30.75;;;;;;;14.68;100.00;101621.00;5052162;28;20115;-46
2023/05/09 00:54:10;;;;;;;40.75;30.27;;;;;;;14.67;100.00;101606.25;5052140;28;20040;-48
2023/05/09 00:56:36;;;;;;;42.28;30.48;;;;;;;14.70;100.00;101604.78;5049994;28;20262;-46
2023/05/09 00:59:01;;;;;;;41.10;30.25;;;;;;;14.69;100.00;101605.94;5049360;28;20565;-46
2023/05/09 01:01:27;;;;;;;42.20;29.90;;;;;;;14.65;100.00;101603.75;5051490;28;20456;-47
2023/05/09 01:03:53;;;;;;;41.72;30.20;;;;;;;14.68;100.00;101612.66;5051798;28;20044;-45
2023/05/09 01:06:42;;;;;;;39.78;29.70;;;;;;;14.72;100.00;101605.28;5051814;28;20025;-47
2023/05/09 01:09:25;;;;;;;40.17;29.10;;;;;;;14.70;100.00;101593.66;5051851;28;20044;-46
2023/05/09 01:12:02;;;;;;;40.97;29.33;;;;;;;14.69;100.00;101600.38;5052160;28;20036;-46
2023/05/09 01:15:03;;;;;;;39.45;30.85;;;;;;;14.71;100.00;101586.94;5052706;28;20769;-50
2023/05/09 01:17:50;;;;;;;38.72;28.73;;;;;;;14.75;100.00;101585.19;5051873;28;20488;-47
2023/05/09 01:20:32;;;;;;;39.80;28.63;;;;;;;14.76;100.00;101586.81;5051519;28;20025;-48
2023/05/09 01:23:10;;;;;;;40.15;28.88;;;;;;;14.74;100.00;101581.56;5051692;28;20154;-47
2023/05/09 01:25:47;;;;;;;37.75;26.35;;;;;;;14.66;100.00;101569.22;5051418;28;20039;-44
2023/05/09 01:28:30;;;;;;;39.40;27.83;;;;;;;14.66;100.00;101565.56;5051584;28;20033;-47
2023/05/09 01:30:56;;;;;;;38.67;28.17;;;;;;;14.62;100.00;101561.78;5051460;28;20057;-45
2023/05/09 01:33:25;;;;;;;36.58;26.77;;;;;;;14.56;100.00;101544.41;5051328;28;20138;-46
2023/05/09 01:35:58;;;;;;;36.35;27.23;;;;;;;14.49;100.00;101544.81;5051520;28;20123;-45
2023/05/09 01:38:24;;;;;;;37.17;27.33;;;;;;;14.45;100.00;101541.00;5051257;28;20048;-45
2023/05/09 01:40:53;;;;;;;37.78;27.25;;;;;;;14.43;100.00;101546.09;5051109;28;20295;-43
2023/05/09 01:43:20;;;;;;;36.58;26.55;;;;;;;14.47;100.00;101552.66;5051341;28;20025;-44
2023/05/09 01:45:47;;;;;;;34.88;25.85;;;;;;;14.41;100.00;101539.19;5051232;28;20025;-44
2023/05/09 01:48:14;;;;;;;35.80;26.70;;;;;;;14.43;100.00;101548.88;5050893;28;20115;-43
2023/05/09 01:50:41;;;;;;;36.05;26.55;;;;;;;14.43;100.00;101542.47;5049869;28;20104;-44
2023/05/09 01:53:09;;;;;;;34.10;26.45;;;;;;;14.42;100.00;101538.88;5048827;28;20032;-44
2023/05/09 01:55:36;;;;;;;35.05;26.52;;;;;;;14.39;100.00;101538.69;5051209;28;20047;-46
2023/05/09 01:58:04;;;;;;;34.63;26.02;;;;;;;14.33;100.00;101533.22;5051304;28;20025;-50
2023/05/09 02:00:33;;;;;;;35.45;26.92;;;;;;;14.33;100.00;101532.44;5051333;28;20116;-45
2023/05/09 02:03:00;;;;;;;33.72;25.38;;;;;;;14.33;100.00;101535.22;5051124;28;20112;-47
2023/05/09 02:05:27;;;;;;;35.70;26.15;;;;;;;14.28;100.00;101532.53;5051387;28;20100;-45
2023/05/09 02:07:57;;;;;;;34.65;25.35;;;;;;;14.29;100.00;101528.63;5051496;28;20144;-45
2023/05/09 02:10:24;;;;;;;35.10;26.38;;;;;;;14.29;100.00;101535.03;5051203;28;20043;-47
2023/05/09 02:12:50;;;;;;;34.53;26.05;;;;;;;14.28;100.00;101529.75;5053759;28;20052;-46
2023/05/09 02:15:15;;;;;;;37.03;25.92;;;;;;;14.28;100.00;101527.81;5055376;28;20133;-45
2023/05/09 02:17:41;;;;;;;36.42;26.42;;;;;;;14.24;100.00;101525.97;5055333;28;20488;-45
2023/05/09 02:20:08;;;;;;;34.33;26.13;;;;;;;14.24;100.00;101521.22;5055020;28;20139;-45
2023/05/09 02:22:35;;;;;;;34.83;26.48;;;;;;;14.22;100.00;101522.66;5054953;28;20036;-46
2023/05/09 02:25:03;;;;;;;38.95;27.08;;;;;;;14.17;100.00;101516.06;5055043;28;20021;-45
2023/05/09 02:27:31;;;;;;;35.38;26.50;;;;;;;14.18;100.00;101514.94;5055361;28;20072;-46
2023/05/09 02:30:00;;;;;;;36.45;26.52;;;;;;;14.15;100.00;101525.88;5054932;28;20029;-46
2023/05/09 02:32:28;;;;;;;36.60;27.20;;;;;;;14.11;100.00;101520.13;5054819;28;20036;-45
2023/05/09 02:34:55;;;;;;;35.15;26.27;;;;;;;14.08;100.00;101514.38;5054407;28;20491;-45
2023/05/09 02:37:21;;;;;;;35.63;26.45;;;;;;;14.07;100.00;101521.06;5054302;28;20052;-45
2023/05/09 02:39:46;;;;;;;35.78;26.90;;;;;;;14.13;100.00;101522.56;5054572;28;20051;-45
2023/05/09 02:42:14;;;;;;;36.97;27.48;;;;;;;14.05;100.00;101518.59;5054544;28;20037;-46
2023/05/09 02:44:40;;;;;;;37.47;27.25;;;;;;;14.03;100.00;101521.69;5054636;28;20028;-46
2023/05/09 02:47:06;;;;;;;35.30;26.65;;;;;;;14.05;100.00;101529.72;5052496;28;20021;-44
2023/05/09 02:49:32;;;;;;;35.83;26.65;;;;;;;14.01;100.00;101529.53;5052878;28;20053;-44
2023/05/09 02:51:57;;;;;;;38.38;28.95;;;;;;;13.99;100.00;101526.25;5054272;28;20523;-45
2023/05/09 02:54:22;;;;;;;36.03;27.27;;;;;;;13.94;100.00;101519.97;5054336;28;20035;-47
2023/05/09 02:56:48;;;;;;;35.95;26.52;;;;;;;13.92;100.00;101519.44;5054360;28;20017;-44
2023/05/09 02:59:14;;;;;;;36.35;26.83;;;;;;;13.85;100.00;101504.03;5054332;28;20474;-45
2023/05/09 03:01:40;;;;;;;36.63;27.92;;;;;;;13.85;100.00;101504.03;5053863;28;20037;-45
2023/05/09 03:04:05;;;;;;;36.47;27.73;;;;;;;13.82;100.00;101495.50;5054127;28;20029;-47
2023/05/09 03:06:31;;;;;;;37.10;27.70;;;;;;;13.79;100.00;101496.09;5054007;28;20106;-44
2023/05/09 03:08:56;;;;;;;34.97;26.45;;;;;;;13.76;100.00;101496.72;5053885;28;20460;-47
2023/05/09 03:11:22;;;;;;;37.58;26.77;;;;;;;13.68;100.00;101489.94;5053608;28;20029;-46
2023/05/09 03:13:47;;;;;;;36.05;27.35;;;;;;;13.70;100.00;101490.44;5053549;28;20048;-45
2023/05/09 03:16:14;;;;;;;36.28;27.73;;;;;;;13.67;100.00;101485.53;5053543;28;20033;-46
2023/05/09 03:18:39;;;;;;;35.55;27.00;;;;;;;13.67;100.00;101483.56;5053438;28;20025;-47
2023/05/09 03:21:05;;;;;;;35.47;27.08;;;;;;;13.65;100.00;101487.78;5053298;28;20104;-46
2023/05/09 03:23:30;;;;;;;37.50;27.20;;;;;;;13.65;100.00;101473.88;5053601;28;20098;-44
2023/05/09 03:25:56;;;;;;;36.17;27.30;;;;;;;13.62;100.00;101474.50;5053557;28;20021;-49
2023/05/09 03:28:21;;;;;;;37.17;27.52;;;;;;;13.63;100.00;101481.72;5053645;28;20025;-45
2023/05/09 03:30:46;;;;;;;37.92;27.30;;;;;;;13.64;100.00;101473.06;5053423;28;20039;-44
2023/05/09 03:33:12;;;;;;;39.80;28.60;;;;;;;13.63;100.00;101478.94;5053010;28;20029;-45
2023/05/09 03:35:38;;;;;;;37.85;28.08;;;;;;;13.63;100.00;101471.44;5053239;28;20139;-49
2023/05/09 03:38:04;;;;;;;36.85;26.95;;;;;;;13.67;100.00;101472.44;5053096;28;20133;-47
2023/05/09 03:40:29;;;;;;;37.40;27.67;;;;;;;13.68;100.00;101465.75;5053340;28;20041;-45
2023/05/09 03:42:55;;;;;;;39.42;28.38;;;;;;;13.63;100.00;101473.38;5051492;28;20090;-48
2023/05/09 03:45:20;;;;;;;37.42;27.33;;;;;;;13.62;100.00;101475.34;5051323;28;20060;-48
2023/05/09 03:47:45;;;;;;;38.67;28.38;;;;;;;13.59;100.00;101473.16;5053368;28;20028;-48
2023/05/09 03:50:11;;;;;;;36.42;27.63;;;;;;;13.55;100.00;101472.97;5053328;28;20025;-49
2023/05/09 03:52:36;;;;;;;37.25;28.23;;;;;;;13.57;100.00;101456.81;5052791;28;20032;-47
2023/05/09 03:55:02;;;;;;;38.42;28.33;;;;;;;13.56;100.00;101454.31;5053101;28;20033;-46
2023/05/09 03:57:27;;;;;;;35.25;27.67;;;;;;;13.59;100.00;101455.69;5053172;28;20036;-45
2023/05/09 03:59:53;;;;;;;35.78;27.23;;;;;;;13.61;100.00;101451.44;5052830;28;20033;-46
2023/05/09 04:02:18;;;;;;;39.22;28.73;;;;;;;13.62;100.00;101447.53;5051373;28;20025;-46
2023/05/09 04:04:45;;;;;;;36.75;28.17;;;;;;;13.54;100.00;101446.31;5050752;28;20060;-49
2023/05/09 04:07:10;;;;;;;35.65;26.77;;;;;;;13.51;100.00;101446.91;5052747;28;20028;-48
2023/05/09 04:09:36;;;;;;;36.35;28.48;;;;;;;13.49;100.00;101454.78;5052553;28;20051;-43
2023/05/09 04:12:01;;;;;;;36.75;27.77;;;;;;;13.55;100.00;101449.94;5051025;28;20025;-47
2023/05/09 04:14:26;;;;;;;37.15;28.38;;;;;;;13.52;100.00;101434.66;5051216;28;20029;-45
2023/05/09 04:16:51;;;;;;;36.22;27.38;;;;;;;13.52;100.00;101434.66;5052503;28;20055;-45
2023/05/09 04:19:17;;;;;;;36.97;27.15;;;;;;;13.54;100.00;101440.75;5052459;28;20027;-44
2023/05/09 04:21:42;;;;;;;35.83;26.98;;;;;;;13.52;100.00;101426.34;5052309;28;20029;-49
2023/05/09 04:24:07;;;;;;;35.85;25.80;;;;;;;13.53;100.00;101419.63;5052428;28;20025;-45
2023/05/09 04:26:36;;;;;;;34.53;26.05;;;;;;;13.51;100.00;101415.53;5052668;28;20031;-47
2023/05/09 04:29:02;;;;;;;35.95;26.95;;;;;;;13.50;100.00;101419.44;5052626;28;20021;-47
2023/05/09 04:31:27;;;;;;;35.47;26.63;;;;;;;13.49;100.00;101415.84;5052493;28;20052;-46
2023/05/09 04:33:53;;;;;;;35.88;25.38;;;;;;;13.50;100.00;101420.28;5052398;28;20518;-49
2023/05/09 04:36:18;;;;;;;34.75;25.30;;;;;;;13.52;100.00;101417.19;5051898;28;20025;-49
2023/05/09 04:38:43;;;;;;;32.72;24.27;;;;;;;13.51;100.00;101421.09;5051996;28;20411;-50
2023/05/09 04:41:08;;;;;;;33.63;25.20;;;;;;;13.54;100.00;101426.03;5048035;28;20041;-48
2023/05/09 04:43:34;;;;;;;34.30;24.83;;;;;;;13.54;100.00;101426.03;5052190;28;20036;-46
2023/05/09 04:45:59;;;;;;;32.72;24.50;;;;;;;13.59;100.00;101422.31;5052037;28;20452;-46
2023/05/09 04:48:24;;;;;;;34.85;25.58;;;;;;;13.63;100.00;101415.81;5052046;28;20032;-45
2023/05/09 04:50:50;;;;;;;32.90;23.67;;;;;;;13.65;100.00;101410.75;5051917;28;20087;-45
2023/05/09 04:53:15;;;;;;;35.55;24.02;;;;;;;13.68;100.00;101410.13;5051996;28;20040;-46
2023/05/09 04:55:40;;;;;;;31.85;24.42;;;;;;;13.73;100.00;101403.63;5051955;28;20079;-47
2023/05/09 04:58:06;;;;;;;31.27;23.02;;;;;;;13.82;100.00;101395.38;5051978;28;20017;-46
2023/05/09 05:00:31;;;;;;;33.08;23.52;;;;;;;13.92;100.00;101399.84;5051971;28;20025;-49
2023/05/09 05:02:56;;;;;;;33.90;23.40;;;;;;;13.97;100.00;101395.00;5051848;28;20043;-47
2023/05/09 05:05:22;;;;;;;32.47;22.70;;;;;;;14.07;100.00;101402.28;5051675;28;20033;-43
2023/05/09 05:07:47;;;;;;;32.03;23.52;;;;;;;14.09;100.00;101401.94;5051771;28;20025;-47
2023/05/09 05:10:12;;;;;;;31.73;23.67;;;;;;;14.15;100.00;101393.16;5051790;28;20087;-48
2023/05/09 05:12:38;;;;;;;29.65;21.58;;;;;;;14.23;100.00;101388.78;5051557;28;20334;-47
2023/05/09 05:15:04;;;;;;;29.98;22.23;;;;;;;14.28;100.00;101376.69;5051577;28;20043;-48
2023/05/09 05:17:29;;;;;;;31.27;22.85;;;;;;;14.27;100.00;101373.09;5051544;28;20028;-47
2023/05/09 05:19:54;;;;;;;29.23;21.80;;;;;;;14.23;100.00;101358.16;5050035;28;20052;-48
2023/05/09 05:22:20;;;;;;;30.02;22.95;;;;;;;14.25;100.00;101363.44;5051584;28;20053;-46
2023/05/09 05:24:45;;;;;;;29.17;21.65;;;;;;;14.31;100.00;101356.56;5051414;28;20392;-49
2023/05/09 05:27:11;;;;;;;29.63;22.90;;;;;;;14.30;100.00;101346.59;5051157;28;20545;-47
2023/05/09 05:29:36;;;;;;;28.85;22.10;;;;;;;14.34;100.00;101353.97;5051284;28;20033;-45
2023/05/09 05:32:01;;;;;;;30.48;21.88;;;;;;;14.39;100.00;101341.06;5049895;28;20040;-45
2023/05/09 05:34:26;;;;;;;28.88;21.67;;;;;;;14.42;100.00;101349.59;5050650;28;20037;-46
2023/05/09 05:36:52;;;;;;;29.20;21.38;;;;;;;14.42;100.00;101348.75;5048372;28;20109;-46
2023/05/09 05:39:17;;;;;;;30.17;22.58;;;;;;;14.41;100.00;101345.16;5050895;28;20045;-46
2023/05/09 05:41:42;;;;;;;28.63;21.50;;;;;;;14.46;100.00;101344.22;5051122;28;20695;-46
2023/05/09 05:44:08;;;;;;;29.02;22.48;;;;;;;14.53;100.00;101339.00;5051175;28;20033;-49
2023/05/09 05:46:33;;;;;;;29.38;22.35;;;;;;;14.67;100.00;101338.91;5050142;28;20033;-46
2023/05/09 05:48:58;;;;;;;28.40;21.40;;;;;;;14.73;100.00;101337.66;5050928;28;20070;-45
2023/05/09 05:51:23;;;;;;;29.92;22.02;;;;;;;14.84;100.00;101337.31;5051041;28;20029;-46
2023/05/09 05:53:49;;;;;;;29.08;21.60;;;;;;;14.91;100.00;101332.94;5050962;28;20128;-48
2023/05/09 05:56:14;;;;;;;27.67;21.00;;;;;;;15.00;100.00;101335.75;5050976;28;20541;-48
2023/05/09 05:58:40;;;;;;;27.98;20.83;;;;;;;15.09;100.00;101332.97;5050806;28;20053;-48
2023/05/09 06:01:05;;;;;;;28.40;20.88;;;;;;;15.14;100.00;101327.25;5050779;28;20028;-48
2023/05/09 06:03:30;;;;;;;27.00;21.35;;;;;;;15.21;100.00;101322.00;5050777;28;20029;-49
2023/05/09 06:05:56;;;;;;;29.45;21.17;;;;;;;15.34;100.00;101327.75;5050696;28;20448;-48
2023/05/09 06:08:21;;;;;;;27.70;21.27;;;;;;;15.39;100.00;101319.22;5050385;28;20052;-50
2023/05/09 06:10:46;;;;;;;28.80;20.73;;;;;;;15.50;100.00;101314.97;5050620;28;20059;-48
2023/05/09 06:13:12;;;;;;;27.20;21.13;;;;;;;15.63;100.00;101315.13;5050651;28;20022;-47
2023/05/09 06:15:37;;;;;;;28.15;21.75;;;;;;;15.70;100.00;101312.66;5050864;28;20033;-44
2023/05/09 06:18:02;;;;;;;28.35;21.13;;;;;;;15.75;100.00;101304.94;5050637;28;20036;-45
2023/05/09 06:20:28;;;;;;;26.80;20.67;;;;;;;15.81;100.00;101307.53;5050883;28;20503;-47
2023/05/09 06:22:53;;;;;;;28.02;20.80;;;;;;;15.82;100.00;101303.63;5050910;28;20503;-44
2023/05/09 06:25:18;;;;;;;27.23;20.58;;;;;;;15.83;100.00;101303.28;5050707;28;20112;-44
2023/05/09 06:27:43;;;;;;;27.17;20.23;;;;;;;15.79;100.00;101299.53;5050703;28;20040;-46
2023/05/09 06:30:09;;;;;;;30.00;20.85;;;;;;;15.83;100.00;101306.06;5047833;28;20032;-46
2023/05/09 06:32:34;;;;;;;27.65;21.00;;;;;;;15.74;100.00;101289.34;5050036;28;20108;-46
2023/05/09 06:35:00;;;;;;;28.27;20.88;;;;;;;15.78;100.00;101295.09;5050631;28;20114;-43
2023/05/09 06:37:25;;;;;;;28.52;20.75;;;;;;;15.72;100.00;101288.06;5050610;28;20053;-45
2023/05/09 06:39:50;;;;;;;29.52;21.00;;;;;;;15.68;100.00;101290.66;5050370;28;20395;-44
2023/05/09 06:42:16;;;;;;;28.05;20.77;;;;;;;15.64;100.00;101294.44;5050438;28;20037;-45
2023/05/09 06:44:42;;;;;;;27.60;20.95;;;;;;;15.58;100.00;101289.03;5050292;28;20092;-47
2023/05/09 06:47:08;;;;;;;27.60;20.70;;;;;;;15.62;100.00;101293.97;5050437;28;20032;-43
2023/05/09 06:49:33;;;;;;;27.13;21.17;;;;;;;15.61;100.00;101284.75;5050299;28;20017;-44
2023/05/09 06:51:58;;;;;;;27.70;20.77;;;;;;;15.65;100.00;101276.56;5048796;28;20053;-43
2023/05/09 06:54:24;;;;;;;28.92;21.33;;;;;;;15.67;100.00;101279.84;5028875;28;20099;-47
2023/05/09 06:56:49;;;;;;;28.05;21.17;;;;;;;15.68;100.00;101278.69;5025029;28;20025;-46
2023/05/09 06:59:15;;;;;;;26.13;19.83;;;;;;;15.73;100.00;101275.72;5027729;28;20025;-46
2023/05/09 07:01:41;;;;;;;27.30;21.02;;;;;;;15.83;100.00;101275.38;5028181;28;20033;-47
2023/05/09 07:04:06;;;;;;;29.17;21.77;;;;;;;15.85;100.00;101264.75;5028273;28;20048;-46
2023/05/09 07:06:32;;;;;;;28.70;20.85;;;;;;;15.98;100.00;101259.28;5027204;28;20104;-44
2023/05/09 07:08:57;;;;;;;26.95;20.88;;;;;;;16.06;100.00;101264.03;5029137;28;20424;-45
2023/05/09 07:11:22;;;;;;;29.30;21.20;;;;;;;16.14;100.00;101260.38;5030632;28;20045;-46
2023/05/09 07:13:47;;;;;;;27.60;21.45;;;;;;;16.14;100.00;101265.16;5031917;28;20030;-46
2023/05/09 07:16:14;;;;;;;28.98;21.55;;;;;;;16.14;100.00;101260.38;5031970;28;20134;-45
2023/05/09 07:18:40;;;;;;;28.33;21.40;;;;;;;16.22;100.00;101250.34;5031797;28;20037;-47
2023/05/09 07:21:05;;;;;;;28.08;20.45;;;;;;;16.34;100.00;101253.22;5031643;28;20033;-45
2023/05/09 07:23:30;;;;;;;27.35;21.30;;;;;;;16.39;100.00;101243.84;5032077;28;20041;-44
2023/05/09 07:26:00;;;;;;;29.77;21.33;;;;;;;16.38;100.00;101248.63;5031776;28;20477;-45
2023/05/09 07:28:25;;;;;;;26.15;20.05;;;;;;;16.45;99.80;101247.25;5032252;28;20048;-44
2023/05/09 07:30:51;;;;;;;26.80;20.60;;;;;;;16.42;99.43;101243.19;5031697;28;20481;-44
2023/05/09 07:33:16;;;;;;;26.30;20.02;;;;;;;16.38;100.00;101243.03;5031730;28;20075;-44
2023/05/09 07:35:41;;;;;;;28.05;21.23;;;;;;;16.34;100.00;101235.66;5031586;28;20365;-45
2023/05/09 07:38:06;;;;;;;26.65;20.80;;;;;;;16.31;100.00;101248.34;5031395;28;20166;-46
2023/05/09 07:40:36;;;;;;;26.70;20.15;;;;;;;16.32;99.71;101244.38;5031330;28;20025;-45
2023/05/09 07:43:01;;;;;;;25.23;19.08;;;;;;;16.32;98.11;101237.97;5031578;28;20489;-44
2023/05/09 07:45:26;;;;;;;25.73;19.75;;;;;;;16.27;99.43;101236.19;5031963;28;20059;-47
2023/05/09 07:47:51;;;;;;;25.13;19.13;;;;;;;16.25;99.61;101229.31;5031299;28;20036;-44
2023/05/09 07:50:17;;;;;;;24.17;18.13;;;;;;;16.26;98.37;101228.97;5031162;28;20087;-43
2023/05/09 07:52:42;;;;;;;23.25;17.35;;;;;;;16.28;97.94;101229.44;5031481;28;20029;-45
2023/05/09 07:55:08;;;;;;;24.70;17.35;;;;;;;16.26;97.49;101234.53;5031110;28;20039;-43
2023/05/09 07:57:33;;;;;;;23.58;17.17;;;;;;;16.20;97.66;101230.31;5031119;28;20381;-45
2023/05/09 07:59:58;;;;;;;24.98;16.90;;;;;;;16.15;97.67;101222.94;5030877;28;20026;-47
2023/05/09 08:02:24;;;;;;;24.00;16.83;;;;;;;16.06;98.64;101222.97;5031028;28;20063;-44
2023/05/09 08:04:49;;;;;;;24.92;17.35;;;;;;;16.00;98.77;101218.75;5029123;28;20046;-44
2023/05/09 08:07:15;;;;;;;23.20;17.58;;;;;;;16.02;99.27;101218.41;5030971;28;20053;-45
2023/05/09 08:09:40;;;;;;;22.80;16.98;;;;;;;16.02;99.22;101216.44;5030075;28;20041;-45
2023/05/09 08:12:06;;;;;;;23.05;16.42;;;;;;;16.07;98.46;101212.66;5031212;28;20033;-45
2023/05/09 08:14:31;;;;;;;21.70;15.88;;;;;;;16.13;98.48;101207.69;5031043;28;20109;-44
2023/05/09 08:16:57;;;;;;;23.83;16.00;;;;;;;16.18;98.89;101211.13;5031141;28;20036;-45
2023/05/09 08:19:24;;;;;;;21.67;15.55;;;;;;;16.21;99.27;101209.63;5030927;28;20360;-48
2023/05/09 08:21:50;;;;;;;22.38;15.60;;;;;;;16.22;99.15;101208.47;5030840;28;20025;-47
2023/05/09 08:24:15;;;;;;;22.27;15.75;;;;;;;16.17;99.67;101206.69;5030763;28;20373;-43
2023/05/09 08:26:41;;;;;;;23.33;15.95;;;;;;;16.13;100.00;101202.13;5030570;28;20484;-45
2023/05/09 08:29:06;;;;;;;22.10;15.80;;;;;;;16.10;100.00;101199.97;5030503;28;20416;-48
2023/05/09 08:31:31;;;;;;;22.52;16.15;;;;;;;16.09;100.00;101185.22;5030381;28;20029;-46
2023/05/09 08:33:57;;;;;;;22.63;15.57;;;;;;;16.14;100.00;101184.22;5030361;28;20461;-45
2023/05/09 08:36:22;;;;;;;21.88;16.00;;;;;;;16.06;100.00;101183.09;5040606;28;20033;-44
2023/05/09 08:38:48;;;;;;;22.90;16.80;;;;;;;15.96;100.00;101177.88;5049970;28;20083;-46
2023/05/09 08:41:14;;;;;;;21.83;16.42;;;;;;;15.87;100.00;101183.53;5050014;28;20078;-43
2023/05/09 08:43:40;;;;;;;22.48;16.83;;;;;;;15.91;100.00;101184.47;5048322;28;20032;-43
2023/05/09 08:46:08;;;;;;;22.67;16.98;;;;;;;15.85;100.00;101180.25;5049977;28;20501;-48
2023/05/09 08:48:36;;;;;;;22.02;16.42;;;;;;;15.83;100.00;101171.34;5050577;28;20231;-44
2023/05/09 08:51:03;;;;;;;21.70;16.40;;;;;;;15.86;100.00;101177.09;5048663;28;20029;-43
2023/05/09 08:53:28;;;;;;;24.38;16.75;;;;;;;15.72;100.00;101166.13;5029998;28;20046;-48
2023/05/09 08:55:54;;;;;;;24.08;17.20;;;;;;;15.80;100.00;101170.06;5038939;28;20048;-45
2023/05/09 08:58:21;;;;;;;23.00;16.63;;;;;;;15.84;100.00;101168.25;5050001;28;20024;-47
2023/05/09 09:00:47;;;;;;;21.65;16.42;;;;;;;15.86;100.00;101163.16;5049968;28;20056;-44
2023/05/09 09:03:13;;;;;;;23.17;17.30;;;;;;;15.88;100.00;101163.66;5039107;28;20114;-46
2023/05/09 09:05:41;;;;;;;24.55;17.70;;;;;;;15.91;100.00;101162.16;5031675;28;20072;-47
2023/05/09 09:08:07;;;;;;;23.42;18.30;;;;;;;16.03;100.00;101164.22;5030454;28;20400;-49
2023/05/09 09:10:33;;;;;;;23.27;17.05;;;;;;;16.05;100.00;101161.94;5029893;28;20171;-45
2023/05/09 09:13:00;;;;;;;23.05;17.42;;;;;;;16.00;100.00;101160.13;5031531;28;20120;-48
2023/05/09 09:15:30;;;;;;;22.42;17.13;;;;;;;15.90;100.00;101157.72;5031862;28;20021;-44
2023/05/09 09:18:00;;;;;;;22.00;16.70;;;;;;;15.87;100.00;101159.22;5030121;28;20025;-43
2023/05/09 09:20:30;;;;;;;22.75;16.77;;;;;;;15.76;100.00;101152.34;5031155;28;20405;-45
2023/05/09 09:23:02;;;;;;;22.23;16.48;;;;;;;15.67;100.00;101148.75;5031499;28;20159;-43
2023/05/09 09:25:28;;;;;;;22.08;16.92;;;;;;;15.63;100.00;101151.41;5031302;28;20021;-43
2023/05/09 09:27:53;;;;;;;21.73;16.83;;;;;;;15.54;100.00;101148.63;5031335;28;20378;-46
2023/05/09 09:30:18;;;;;;;22.35;16.30;;;;;;;15.43;100.00;101139.81;5031299;28;20077;-43
2023/05/09 09:32:44;;;;;;;22.92;16.92;;;;;;;15.46;100.00;101145.88;5031412;28;20665;-47
2023/05/09 09:35:10;;;;;;;24.50;17.30;;;;;;;15.50;100.00;101144.06;5031212;28;20032;-46
2023/05/09 09:37:38;;;;;;;21.60;16.27;;;;;;;15.55;100.00;101144.69;5030942;28;20128;-43
2023/05/09 09:40:07;;;;;;;20.77;15.35;;;;;;;15.61;100.00;101148.13;5030999;28;20424;-44
2023/05/09 09:42:46;;;;;;;21.80;15.23;;;;;;;15.66;100.00;101139.59;5029998;28;20044;-44
2023/05/09 09:45:13;;;;;;;20.60;14.88;;;;;;;15.64;100.00;101144.69;5031161;28;20029;-44
2023/05/09 09:47:41;;;;;;;20.92;14.30;;;;;;;15.60;100.00;101141.75;5031433;28;20025;-46
2023/05/09 09:50:13;;;;;;;20.80;13.68;;;;;;;15.59;100.00;101139.25;5030665;28;20021;-44
2023/05/09 09:52:48;;;;;;;20.05;13.20;;;;;;;15.67;100.00;101140.41;5031492;28;20036;-45
2023/05/09 09:55:13;;;;;;;18.42;12.20;;;;;;;15.47;100.00;101134.38;5045696;28;20028;-45
2023/05/09 09:57:40;;;;;;;18.65;11.95;;;;;;;15.35;100.00;101139.84;5051208;28;20032;-46
2023/05/09 10:00:06;;;;;;;17.55;11.93;;;;;;;15.27;100.00;101133.94;5051061;28;20469;-46
2023/05/09 10:02:32;;;;;;;18.23;12.10;;;;;;;15.12;100.00;101132.50;5050909;28;20025;-46
2023/05/09 10:05:07;;;;;;;19.45;12.30;;;;;;;15.07;100.00;101129.91;5050830;28;20032;-46
2023/05/09 10:07:34;;;;;;;19.05;12.50;;;;;;;15.11;100.00;101121.69;5050252;28;20116;-50
2023/05/09 10:10:04;;;;;;;18.73;12.85;;;;;;;15.20;100.00;101121.69;5049033;28;20306;-47
2023/05/09 10:12:33;;;;;;;19.15;12.75;;;;;;;15.24;100.00;101122.66;5049154;28;20029;-44
2023/05/09 10:14:59;;;;;;;17.90;12.60;;;;;;;15.31;100.00;101119.34;5048690;28;20017;-46
2023/05/09 10:17:26;;;;;;;19.30;13.05;;;;;;;15.44;100.00;101118.34;5047450;28;20040;-44
2023/05/09 10:19:52;;;;;;;19.30;12.38;;;;;;;15.59;100.00;101111.38;5048789;28;20029;-45
2023/05/09 10:22:18;;;;;;;18.55;12.60;;;;;;;15.61;100.00;101120.22;5048646;28;20501;-44
2023/05/09 10:25:03;;;;;;;18.13;12.15;;;;;;;15.61;100.00;101120.22;5050477;28;20051;-44
2023/05/09 10:27:31;;;;;;;19.90;12.70;;;;;;;15.61;100.00;101111.88;5050806;28;20029;-44
2023/05/09 10:30:05;;;;;;;17.45;11.95;;;;;;;15.72;100.00;101104.78;5049080;28;20033;-45
2023/05/09 10:32:52;;;;;;;19.08;12.45;;;;;;;15.78;100.00;101104.56;5051002;28;20579;-44
2023/05/09 10:35:21;;;;;;;18.00;12.00;;;;;;;15.59;100.00;101097.44;5054475;28;20021;-44
2023/05/09 10:37:47;;;;;;;17.58;11.80;;;;;;;15.45;100.00;101100.44;5054520;28;20094;-46
2023/05/09 10:40:14;;;;;;;17.90;12.50;;;;;;;15.37;100.00;101092.94;5054276;28;20482;-44
2023/05/09 10:42:43;;;;;;;18.70;12.27;;;;;;;15.37;100.00;101092.94;5054268;28;20024;-44
2023/05/09 10:45:10;;;;;;;19.13;12.50;;;;;;;15.31;100.00;101091.47;5054638;28;20480;-47
2023/05/09 10:47:37;;;;;;;19.02;12.32;;;;;;;15.27;100.00;101081.00;5054382;28;20481;-44
2023/05/09 10:50:03;;;;;;;18.23;12.65;;;;;;;15.34;100.00;101091.63;5054644;28;20025;-45
2023/05/09 10:52:35;;;;;;;19.08;12.70;;;;;;;15.39;100.00;101079.47;5054230;28;20447;-46
2023/05/09 10:55:02;;;;;;;19.70;13.52;;;;;;;15.25;100.00;101079.69;5054148;28;20025;-46
2023/05/09 10:57:29;;;;;;;18.90;13.50;;;;;;;15.24;100.00;101069.69;5054080;28;20048;-44
2023/05/09 10:59:55;;;;;;;19.23;13.35;;;;;;;15.31;100.00;101072.78;5054203;28;20033;-44